Time;durP1;ratioP1;P1;durP2;ratioP2;P2;SDS_P1;SDS_P2;PMS_P1;PMS_P2;Temp;Humidity;BMP_temperature;BMP_pressure;BME280_temperature;BME280_humidity;BME280_pressure;Samples;Min_cycle;Max_cycle;Signal;HPM_P1;HPM_P2
2021/04/19 00:00:09;;;;;;;24.50;14.82;;;;;;;5.67;78.54;94566.72;2997529;39;20043;-82
2021/04/19 00:02:10;;;;;;;23.00;14.95;;;;;;;5.61;79.91;94567.25;2993190;39;20093;-83
2021/04/19 00:04:11;;;;;;;32.75;18.30;;;;;;;5.16;81.05;94567.59;2999483;39;20071;-82
2021/04/19 00:06:13;;;;;;;34.58;19.23;;;;;;;4.98;82.12;94565.59;2996274;39;20364;-85
2021/04/19 00:08:14;;;;;;;40.88;22.17;;;;;;;5.01;82.63;94564.50;2989238;39;20055;-83
2021/04/19 00:10:18;;;;;;;36.92;21.95;;;;;;;5.13;81.86;94566.91;2998851;39;20408;-83
2021/04/19 00:12:19;;;;;;;47.10;26.70;;;;;;;5.22;81.98;94554.91;2994304;39;20056;-83
2021/04/19 00:14:20;;;;;;;43.97;25.05;;;;;;;5.22;82.13;94557.50;2997161;39;20063;-84
2021/04/19 00:16:21;;;;;;;43.28;22.10;;;;;;;5.30;81.49;94559.47;2996993;39;20055;-80
2021/04/19 00:18:23;;;;;;;39.78;21.75;;;;;;;5.28;82.48;94553.59;2979243;39;20088;-84
2021/04/19 00:20:24;;;;;;;39.72;19.77;;;;;;;5.39;82.43;94550.06;3002835;39;20051;-83
2021/04/19 00:22:26;;;;;;;36.00;18.80;;;;;;;5.24;82.14;94545.22;2986356;39;20032;-84
2021/04/19 00:24:27;;;;;;;36.97;17.60;;;;;;;5.06;82.92;94545.00;2988606;39;20079;-72
2021/04/19 00:26:28;;;;;;;43.00;18.52;;;;;;;4.89;83.59;94549.03;2984805;39;20080;-70
2021/04/19 00:28:30;;;;;;;39.95;17.83;;;;;;;4.91;84.44;94546.31;2990441;39;20062;-70
2021/04/19 00:30:31;;;;;;;34.50;16.63;;;;;;;5.04;83.89;94539.13;2986109;39;20156;-71
2021/04/19 00:32:33;;;;;;;38.75;18.75;;;;;;;4.93;84.37;94537.44;2987278;39;20062;-71
2021/04/19 00:34:35;;;;;;;36.83;17.48;;;;;;;4.99;84.54;94536.09;2990828;39;20051;-69
2021/04/19 00:36:36;;;;;;;45.45;19.52;;;;;;;5.00;83.90;94532.53;2983744;39;20112;-84
2021/04/19 00:38:37;;;;;;;44.17;19.80;;;;;;;5.02;84.41;94543.63;2986355;39;20059;-84
2021/04/19 00:40:41;;;;;;;42.03;17.85;;;;;;;5.00;84.12;94532.53;2981118;39;20048;-84
2021/04/19 00:42:43;;;;;;;40.67;19.17;;;;;;;5.08;83.87;94532.72;2983094;39;20055;-85
2021/04/19 00:44:45;;;;;;;46.20;19.38;;;;;;;5.10;84.07;94528.22;2990622;39;20084;-70
2021/04/19 00:46:47;;;;;;;44.13;20.25;;;;;;;5.17;83.37;94527.72;2992099;39;20074;-71
2021/04/19 00:48:49;;;;;;;44.53;19.50;;;;;;;5.22;83.25;94521.16;2985420;39;20112;-85
2021/04/19 00:50:55;;;;;;;49.53;20.50;;;;;;;5.22;83.38;94515.97;2985369;39;20064;-84
2021/04/19 00:52:56;;;;;;;39.85;18.60;;;;;;;5.07;83.14;94506.88;2991283;39;20075;-72
2021/04/19 00:54:58;;;;;;;41.40;17.48;;;;;;;4.89;84.09;94510.09;2990482;39;20070;-72
2021/04/19 00:57:07;;;;;;;38.55;17.05;;;;;;;4.87;84.34;94509.41;2982491;39;20047;-71
2021/04/19 00:59:08;;;;;;;40.15;16.95;;;;;;;4.99;84.32;94511.91;2981178;39;20051;-72
2021/04/19 01:01:09;;;;;;;35.67;18.23;;;;;;;4.95;83.25;94513.94;2989201;39;20138;-71
2021/04/19 01:03:10;;;;;;;34.50;16.63;;;;;;;5.06;83.87;94508.66;2989811;39;20461;-71
2021/04/19 01:05:18;;;;;;;30.58;16.10;;;;;;;4.99;83.16;94507.56;2990195;39;20530;-71
2021/04/19 01:07:19;;;;;;;31.02;16.88;;;;;;;5.03;83.37;94501.13;2973773;40;20055;-71
2021/04/19 01:09:21;;;;;;;29.48;16.17;;;;;;;5.09;82.64;94504.97;2991701;39;20419;-71
2021/04/19 01:11:22;;;;;;;27.27;14.07;;;;;;;4.92;83.66;94504.63;2991624;39;20095;-71
2021/04/19 01:13:23;;;;;;;27.85;15.55;;;;;;;5.01;83.04;94512.59;2982557;39;20087;-73
2021/04/19 01:15:24;;;;;;;25.65;14.65;;;;;;;4.96;83.28;94509.56;2982606;39;20095;-72
2021/04/19 01:17:26;;;;;;;33.90;15.43;;;;;;;5.00;83.44;94509.19;2992074;39;20427;-71
2021/04/19 01:19:27;;;;;;;29.38;15.23;;;;;;;4.95;82.73;94508.75;2992223;39;20086;-70
2021/04/19 01:21:28;;;;;;;27.13;14.43;;;;;;;4.88;83.40;94503.25;2991836;39;20075;-70
2021/04/19 01:23:29;;;;;;;24.88;14.40;;;;;;;4.87;83.70;94506.78;2992198;39;20083;-70
2021/04/19 01:25:31;;;;;;;22.75;13.73;;;;;;;4.75;83.51;94513.00;2981687;39;20055;-71
2021/04/19 01:27:32;;;;;;;22.45;14.48;;;;;;;4.78;83.49;94517.16;2980846;39;20406;-71
2021/04/19 01:29:34;;;;;;;23.08;12.95;;;;;;;4.66;84.32;94511.19;2993242;39;20055;-71
2021/04/19 01:31:44;;;;;;;20.38;12.82;;;;;;;4.75;83.04;94500.03;2984076;39;20131;-73
2021/04/19 01:33:46;;;;;;;21.73;13.35;;;;;;;4.71;83.13;94509.03;2981171;39;20084;-71
2021/04/19 01:35:48;;;;;;;22.33;12.98;;;;;;;4.73;83.92;94496.75;2989489;39;20058;-71
2021/04/19 01:37:50;;;;;;;20.02;12.57;;;;;;;4.87;83.16;94495.59;2987131;39;20072;-71
2021/04/19 01:39:51;;;;;;;21.92;12.77;;;;;;;4.87;82.57;94504.19;2969526;39;20066;-71
2021/04/19 01:41:52;;;;;;;26.02;12.68;;;;;;;4.99;82.58;94504.09;2984815;39;20409;-71
2021/04/19 01:43:54;;;;;;;19.77;11.65;;;;;;;5.08;82.26;94503.34;2993301;39;20053;-71
2021/04/19 01:45:55;;;;;;;22.40;12.02;;;;;;;5.17;81.71;94510.34;2993099;39;20055;-71
2021/04/19 01:47:56;;;;;;;23.52;12.48;;;;;;;5.25;81.36;94507.13;2995960;39;20063;-72
2021/04/19 01:49:58;;;;;;;21.33;13.00;;;;;;;5.32;80.80;94503.84;2980453;39;20060;-70
2021/04/19 01:52:00;;;;;;;21.77;13.18;;;;;;;5.34;80.45;94509.72;2995117;39;20071;-71
2021/04/19 01:54:02;;;;;;;24.05;13.20;;;;;;;5.30;81.04;94507.53;2982239;39;20063;-71
2021/04/19 01:56:03;;;;;;;23.90;12.57;;;;;;;5.38;80.75;94510.28;2992879;39;20051;-71
2021/04/19 01:58:13;;;;;;;21.77;13.52;;;;;;;5.50;81.06;94505.81;2991076;39;20050;-70
2021/04/19 02:00:15;;;;;;;23.92;14.43;;;;;;;5.45;80.18;94495.81;2982430;39;20697;-83
2021/04/19 02:02:20;;;;;;;24.20;14.43;;;;;;;5.52;80.62;94493.50;2989586;39;20091;-83
2021/04/19 02:04:39;;;;;;;22.65;13.43;;;;;;;5.67;79.62;94499.97;3003529;39;20047;-84
2021/04/19 02:07:13;;;;;;;22.48;12.18;;;;;;;5.78;79.38;94500.81;2982745;39;20058;-82
2021/04/19 02:09:49;;;;;;;22.63;12.88;;;;;;;5.74;78.64;94493.28;2986982;39;20231;-84
2021/04/19 02:12:00;;;;;;;18.67;13.00;;;;;;;5.68;78.47;94490.41;2970906;39;20139;-84
2021/04/19 02:14:14;;;;;;;23.13;12.70;;;;;;;5.61;79.46;94492.69;2983736;39;20095;-82
2021/04/19 02:16:23;;;;;;;25.93;14.00;;;;;;;5.59;78.98;94499.78;2994051;39;20059;-85
2021/04/19 02:18:41;;;;;;;23.20;13.82;;;;;;;5.56;79.74;94492.28;2980869;39;20056;-83
2021/04/19 02:20:55;;;;;;;25.63;14.18;;;;;;;5.60;79.30;94477.25;2987347;39;20083;-83
2021/04/19 02:22:59;;;;;;;23.13;13.65;;;;;;;5.70;79.46;94488.47;2987201;39;20387;-83
2021/04/19 02:25:17;;;;;;;29.13;13.60;;;;;;;5.78;78.96;94475.63;2981014;39;20050;-82
2021/04/19 02:27:35;;;;;;;26.55;13.00;;;;;;;5.83;78.96;94478.66;2987897;39;20072;-83
2021/04/19 02:29:41;;;;;;;23.25;13.82;;;;;;;5.53;79.76;94469.19;2987224;39;20136;-84
2021/04/19 02:31:49;;;;;;;19.17;11.85;;;;;;;5.29;79.85;94464.31;2989171;39;20070;-85
2021/04/19 02:33:53;;;;;;;27.92;13.65;;;;;;;5.32;80.03;94462.28;2978951;39;20385;-85
2021/04/19 02:35:55;;;;;;;21.48;13.60;;;;;;;5.42;80.15;94464.91;2985916;39;20047;-84
2021/04/19 02:37:58;;;;;;;21.83;13.00;;;;;;;5.48;79.36;94463.53;2986683;39;20458;-83
2021/04/19 02:40:00;;;;;;;25.37;13.17;;;;;;;5.43;79.98;94463.13;2985703;39;20147;-85
2021/04/19 02:42:03;;;;;;;18.23;12.68;;;;;;;5.25;80.22;94463.78;2986896;39;20090;-85
2021/04/19 02:44:07;;;;;;;18.40;12.27;;;;;;;5.24;80.59;94462.13;2998674;39;20079;-86
2021/04/19 02:46:09;;;;;;;21.88;13.57;;;;;;;5.31;80.20;94455.47;2986789;39;20077;-85
2021/04/19 02:48:11;;;;;;;21.25;12.70;;;;;;;5.38;80.38;94454.91;2986538;39;20063;-85
2021/04/19 02:50:19;;;;;;;24.23;15.35;;;;;;;5.38;80.29;94447.94;2983602;39;20429;-84
2021/04/19 02:52:21;;;;;;;22.30;13.85;;;;;;;5.49;80.43;94450.44;2990081;39;20383;-85
2021/04/19 02:54:22;;;;;;;21.88;13.85;;;;;;;5.59;79.29;94449.59;2985952;39;20342;-72
2021/04/19 02:56:24;;;;;;;22.20;14.00;;;;;;;5.42;80.18;94445.88;2982477;39;20055;-71
2021/04/19 02:58:37;;;;;;;31.10;14.43;;;;;;;5.35;80.37;94448.19;2979646;39;20047;-71
2021/04/19 03:00:49;;;;;;;;;;;;;;;5.32;79.62;94451.06;2978636;39;20172;-71
2021/04/19 03:02:51;;;;;;;24.45;14.63;;;;;;;5.13;80.69;94446.66;2984718;39;19951;-72
2021/04/19 03:04:53;;;;;;;25.70;13.63;;;;;;;4.99;81.76;94450.44;2985517;39;20456;-71
2021/04/19 03:06:57;;;;;;;27.10;14.77;;;;;;;4.59;83.59;94443.41;2982285;39;20351;-72
2021/04/19 03:09:00;;;;;;;21.73;14.30;;;;;;;4.78;83.67;94450.47;2981496;39;20074;-84
2021/04/19 03:11:08;;;;;;;21.77;13.60;;;;;;;5.01;82.59;94448.53;2978074;39;20440;-85
2021/04/19 03:13:10;;;;;;;21.48;13.40;;;;;;;5.19;82.15;94443.53;2986493;39;20075;-83
2021/04/19 03:15:15;;;;;;;22.42;13.43;;;;;;;5.32;81.06;94448.47;2981146;40;20048;-85
2021/04/19 03:17:18;;;;;;;19.38;12.90;;;;;;;5.05;81.05;94456.88;3005246;39;20054;-72
2021/04/19 03:19:21;;;;;;;;;;;;;;;5.17;81.52;94455.00;2983415;39;20056;-71
2021/04/19 03:21:25;;;;;;;21.30;13.00;;;;;;;5.29;80.60;94454.75;2983396;39;19943;-72
2021/04/19 03:23:26;;;;;;;25.20;12.75;;;;;;;5.29;80.07;94449.56;2971528;39;20045;-71
2021/04/19 03:25:28;;;;;;;18.98;12.13;;;;;;;4.93;81.19;94448.34;2980939;39;20050;-73
2021/04/19 03:27:31;;;;;;;22.92;13.82;;;;;;;4.43;83.53;94449.09;2985997;39;20478;-73
2021/04/19 03:29:34;;;;;;;22.35;12.85;;;;;;;4.20;84.82;94450.97;2983389;39;20347;-72
2021/04/19 03:31:46;;;;;;;21.55;12.57;;;;;;;4.01;85.79;94443.88;2982205;39;20342;-71
2021/04/19 03:33:50;;;;;;;21.23;12.35;;;;;;;4.14;85.76;94448.88;2974705;40;20059;-71
2021/04/19 03:35:51;;;;;;;26.23;14.13;;;;;;;4.09;85.87;94449.28;2979769;39;20059;-72
2021/04/19 03:37:53;;;;;;;29.42;15.25;;;;;;;4.17;85.56;94433.06;2979599;39;20325;-71
2021/04/19 03:39:58;;;;;;;24.15;13.75;;;;;;;4.15;85.44;94428.97;2981973;39;20043;-73
2021/04/19 03:42:01;;;;;;;26.08;13.63;;;;;;;4.39;84.68;94423.50;2981976;39;20128;-71
2021/04/19 03:44:05;;;;;;;23.70;14.65;;;;;;;4.50;84.23;94426.03;2974285;39;20253;-72
2021/04/19 03:46:08;;;;;;;26.15;15.93;;;;;;;4.47;84.24;94419.34;2982393;39;20055;-71
2021/04/19 03:48:14;;;;;;;27.77;15.00;;;;;;;4.46;84.46;94414.28;2988604;39;20895;-72
2021/04/19 03:50:17;;;;;;;24.00;14.30;;;;;;;4.60;84.35;94413.91;2979119;39;20052;-71
2021/04/19 03:52:22;;;;;;;25.02;15.38;;;;;;;4.75;83.54;94422.19;2983415;39;20051;-71
2021/04/19 03:54:28;;;;;;;23.70;14.82;;;;;;;4.96;83.33;94422.13;2986807;39;20067;-72
2021/04/19 03:56:32;;;;;;;25.88;15.50;;;;;;;5.13;82.50;94413.69;2990383;39;20054;-72
2021/04/19 03:58:33;;;;;;;25.58;14.25;;;;;;;5.27;81.93;94409.94;2980040;39;20063;-70
2021/04/19 04:00:37;;;;;;;21.65;13.63;;;;;;;5.41;80.70;94407.88;2979871;39;20063;-70
2021/04/19 04:02:41;;;;;;;27.50;13.38;;;;;;;5.46;79.91;94401.34;2983190;39;20062;-73
2021/04/19 04:04:44;;;;;;;22.15;13.63;;;;;;;5.30;80.76;94414.84;2982423;39;20047;-72
2021/04/19 04:06:46;;;;;;;22.20;12.60;;;;;;;5.37;80.53;94406.50;2982362;39;20063;-72
2021/04/19 04:08:47;;;;;;;25.52;13.68;;;;;;;5.37;80.29;94403.91;2989112;39;20083;-71
2021/04/19 04:10:49;;;;;;;29.25;14.90;;;;;;;5.26;81.05;94405.66;2977806;39;20083;-72
2021/04/19 04:12:51;;;;;;;24.05;13.18;;;;;;;5.38;81.07;94414.19;2984661;39;20399;-73
2021/04/19 04:14:55;;;;;;;27.98;13.20;;;;;;;5.42;80.53;94419.91;2993736;39;20070;-71
2021/04/19 04:16:57;;;;;;;26.92;13.23;;;;;;;5.52;80.81;94412.94;2989806;39;20058;-71
2021/04/19 04:18:58;;;;;;;27.60;12.90;;;;;;;5.49;80.12;94408.03;2992522;39;20042;-71
2021/04/19 04:21:00;;;;;;;25.58;13.82;;;;;;;5.38;80.92;94413.34;2982561;39;20075;-72
2021/04/19 04:23:03;;;;;;;27.20;14.80;;;;;;;5.34;81.54;94405.00;2980452;39;20138;-71
2021/04/19 04:25:05;;;;;;;25.85;15.10;;;;;;;5.42;80.75;94409.50;2979514;39;20040;-71
2021/04/19 04:27:07;;;;;;;26.67;15.68;;;;;;;5.45;80.65;94410.06;2982666;39;20320;-73
2021/04/19 04:29:09;;;;;;;32.13;16.88;;;;;;;5.50;81.32;94407.88;2993256;39;20411;-72
2021/04/19 04:31:11;;;;;;;35.38;18.42;;;;;;;5.59;80.65;94411.44;2982990;39;20080;-84
2021/04/19 04:33:12;;;;;;;30.17;16.55;;;;;;;5.57;80.85;94407.34;2986727;39;20335;-85
2021/04/19 04:35:14;;;;;;;31.95;16.58;;;;;;;5.70;80.74;94395.75;2995911;39;20046;-86
2021/04/19 04:37:15;;;;;;;29.25;17.13;;;;;;;5.81;79.94;94405.19;2986744;39;20031;-84
2021/04/19 04:39:16;;;;;;;28.92;16.45;;;;;;;5.92;79.90;94397.22;2979320;40;20082;-86
2021/04/19 04:41:18;;;;;;;31.88;16.35;;;;;;;6.03;79.32;94401.50;2996133;39;20094;-85
2021/04/19 04:43:21;;;;;;;32.25;16.98;;;;;;;6.02;79.30;94405.03;2996891;39;20051;-85
2021/04/19 04:45:23;;;;;;;31.15;16.88;;;;;;;6.08;78.68;94401.88;2987726;39;20059;-73
2021/04/19 04:47:44;;;;;;;33.50;17.25;;;;;;;6.03;78.89;94401.50;2991669;39;20071;-71
2021/04/19 04:50:04;;;;;;;32.10;17.67;;;;;;;5.96;79.46;94410.81;2991737;39;20123;-72
2021/04/19 04:52:07;;;;;;;29.98;17.85;;;;;;;6.02;79.43;94414.63;2991977;39;20103;-72
2021/04/19 04:54:11;;;;;;;32.17;17.05;;;;;;;6.05;79.52;94406.56;2981365;39;20055;-70
2021/04/19 04:56:13;;;;;;;32.67;17.63;;;;;;;6.07;79.39;94402.88;2978272;39;20063;-72
2021/04/19 04:58:15;;;;;;;28.58;17.58;;;;;;;6.10;79.24;94399.97;2982497;39;20139;-71
2021/04/19 05:00:19;;;;;;;30.23;18.10;;;;;;;6.06;79.14;94400.41;2974927;39;20062;-72
2021/04/19 05:02:21;;;;;;;33.20;17.77;;;;;;;6.01;79.58;94406.00;2980519;39;20056;-72
2021/04/19 05:04:24;;;;;;;31.92;18.42;;;;;;;6.05;80.34;94402.19;2982482;39;20424;-71
2021/04/19 05:06:26;;;;;;;35.55;18.13;;;;;;;5.87;80.74;94411.59;2982381;39;20074;-72
2021/04/19 05:08:28;;;;;;;37.75;18.98;;;;;;;5.80;80.98;94407.91;2978010;39;20047;-85
2021/04/19 05:10:29;;;;;;;35.45;18.08;;;;;;;5.75;81.22;94413.53;2991710;39;20099;-88
2021/04/19 05:12:31;;;;;;;35.80;18.88;;;;;;;5.83;81.79;94415.41;2987828;39;20127;-87
2021/04/19 05:14:34;;;;;;;34.53;19.25;;;;;;;5.87;80.80;94415.03;2997129;39;20028;-87
2021/04/19 05:16:35;;;;;;;34.40;19.48;;;;;;;5.84;81.18;94417.09;2987900;39;20426;-88
2021/04/19 05:18:36;;;;;;;36.13;18.80;;;;;;;5.71;81.78;94412.97;2987518;39;20079;-85
2021/04/19 05:20:39;;;;;;;41.85;20.45;;;;;;;5.65;82.58;94418.69;2979862;39;20040;-84
2021/04/19 05:22:41;;;;;;;34.75;19.80;;;;;;;5.57;82.33;94415.16;2997460;39;20071;-84
2021/04/19 05:24:44;;;;;;;31.42;19.38;;;;;;;5.64;82.67;94422.28;2985733;39;20491;-84
2021/04/19 05:26:45;;;;;;;31.42;17.52;;;;;;;5.50;82.24;94425.25;2989041;39;20071;-87
2021/04/19 05:28:48;;;;;;;37.92;19.38;;;;;;;5.63;83.08;94423.22;2984017;39;20328;-88
2021/04/19 05:30:53;;;;;;;33.15;19.20;;;;;;;5.74;83.16;94415.31;2979324;39;20340;-73
2021/04/19 05:32:55;;;;;;;37.17;19.02;;;;;;;5.79;82.48;94422.69;2995974;39;20047;-73
2021/04/19 05:34:57;;;;;;;36.05;17.33;;;;;;;5.78;81.75;94415.84;2983362;39;20039;-74
2021/04/19 05:37:05;;;;;;;33.50;17.40;;;;;;;5.81;81.45;94412.97;2984325;39;20040;-72
2021/04/19 05:39:06;;;;;;;30.25;17.05;;;;;;;5.73;82.15;94408.44;2974978;39;20048;-73
2021/04/19 05:41:10;;;;;;;33.70;17.63;;;;;;;5.71;81.79;94412.16;2975349;39;20044;-72
2021/04/19 05:43:13;;;;;;;33.53;18.67;;;;;;;5.65;82.83;94413.50;2984031;39;20391;-73
2021/04/19 05:45:16;;;;;;;34.20;18.17;;;;;;;5.65;82.78;94408.31;2993307;39;20047;-74
2021/04/19 05:47:18;;;;;;;42.25;19.45;;;;;;;5.74;82.82;94407.50;2992827;39;20087;-74
2021/04/19 05:49:19;;;;;;;34.67;19.15;;;;;;;5.87;82.61;94416.78;2974913;39;20076;-72
2021/04/19 05:51:26;;;;;;;38.95;19.52;;;;;;;5.67;82.31;94410.78;2982723;39;20434;-74
2021/04/19 05:53:27;;;;;;;33.28;19.48;;;;;;;5.42;83.42;94412.97;2982815;39;20048;-72
2021/04/19 05:55:30;;;;;;;42.00;22.17;;;;;;;5.31;83.56;94413.91;2982727;39;20056;-74
2021/04/19 05:57:52;;;;;;;38.25;24.35;;;;;;;5.16;84.51;94409.19;2983666;39;20460;-72
2021/04/19 06:00:13;;;;;;;43.20;25.00;;;;;;;5.21;84.51;94410.44;2981930;39;20055;-73
2021/04/19 06:02:15;;;;;;;40.78;22.40;;;;;;;5.24;85.31;94402.38;2975128;39;20051;-74
2021/04/19 06:04:40;;;;;;;43.40;25.13;;;;;;;5.33;84.61;94403.34;2975029;39;20052;-76
2021/04/19 06:06:53;;;;;;;31.90;19.80;;;;;;;5.41;84.20;94400.91;2985119;39;20091;-73
2021/04/19 06:09:05;;;;;;;34.28;20.23;;;;;;;5.43;83.99;94393.00;2981838;39;20059;-73
2021/04/19 06:11:17;;;;;;;28.45;18.73;;;;;;;5.50;83.47;94394.09;2983039;39;20065;-73
2021/04/19 06:13:20;;;;;;;36.80;20.83;;;;;;;5.52;83.67;94397.38;2989918;39;20151;-73
2021/04/19 06:15:23;;;;;;;34.33;19.35;;;;;;;5.61;83.87;94391.34;2983521;39;20039;-71
2021/04/19 06:17:25;;;;;;;35.42;19.55;;;;;;;5.73;83.84;94392.03;2980305;39;20048;-73
2021/04/19 06:19:27;;;;;;;39.63;20.92;;;;;;;5.87;83.35;94383.84;2981356;39;20048;-72
2021/04/19 06:21:30;;;;;;;33.60;19.70;;;;;;;6.01;83.07;94387.81;2982136;39;20079;-74
2021/04/19 06:23:31;;;;;;;32.25;19.90;;;;;;;6.10;82.42;94389.56;2982654;39;20071;-74
2021/04/19 06:25:33;;;;;;;35.20;19.67;;;;;;;6.04;81.85;94389.31;2974633;40;20056;-74
2021/04/19 06:27:34;;;;;;;33.08;19.20;;;;;;;6.01;82.64;94387.00;2993618;39;20134;-71
2021/04/19 06:29:35;;;;;;;35.83;20.40;;;;;;;6.05;82.34;94391.78;2994693;39;20438;-73
2021/04/19 06:31:41;;;;;;;34.22;18.80;;;;;;;6.12;81.99;94386.84;2982984;39;20062;-73
2021/04/19 06:34:06;;;;;;;35.88;20.98;;;;;;;6.14;82.57;94388.34;2986331;39;20051;-72
2021/04/19 06:36:07;;;;;;;35.35;20.55;;;;;;;6.08;81.84;94382.88;2989943;39;20466;-74
2021/04/19 06:38:09;;;;;;;33.00;21.08;;;;;;;5.97;82.59;94386.44;2982470;39;20421;-87
2021/04/19 06:40:11;;;;;;;34.83;20.67;;;;;;;5.88;82.91;94389.84;2987842;39;20123;-88
2021/04/19 06:42:12;;;;;;;36.70;20.35;;;;;;;5.93;82.79;94380.66;2983403;39;20061;-73
2021/04/19 06:44:14;;;;;;;35.97;20.40;;;;;;;5.98;82.74;94385.50;2988777;39;20345;-73
2021/04/19 06:46:15;;;;;;;33.55;20.83;;;;;;;6.06;83.38;94384.78;2992631;39;20278;-73
2021/04/19 06:48:16;;;;;;;34.50;21.23;;;;;;;6.17;82.57;94383.81;2983399;39;20304;-72
2021/04/19 06:50:18;;;;;;;32.22;20.77;;;;;;;6.25;82.61;94381.34;2992953;39;20427;-73
2021/04/19 06:52:19;;;;;;;28.13;18.55;;;;;;;6.30;81.35;94379.13;2972220;39;20060;-84
2021/04/19 06:54:21;;;;;;;27.38;17.48;;;;;;;6.35;80.77;94379.53;2988315;39;20112;-88
2021/04/19 06:56:25;;;;;;;29.83;18.50;;;;;;;6.40;80.25;94377.31;2999971;39;20027;-88
2021/04/19 06:58:26;;;;;;;28.30;16.77;;;;;;;6.45;80.49;94380.31;2990855;39;20059;-88
2021/04/19 07:00:29;;;;;;;26.58;19.05;;;;;;;6.50;79.97;94385.13;2990527;39;20051;-85
2021/04/19 07:02:34;;;;;;;30.02;17.58;;;;;;;6.52;80.25;94381.41;2990510;39;20383;-88
2021/04/19 07:04:36;;;;;;;32.08;20.65;;;;;;;6.54;79.74;94384.69;2990246;39;20396;-85
2021/04/19 07:06:39;;;;;;;33.58;21.45;;;;;;;6.51;80.00;94384.97;2998948;39;20427;-86
2021/04/19 07:08:44;;;;;;;29.33;19.92;;;;;;;6.52;79.99;94385.81;2998666;39;20063;-86
2021/04/19 07:10:47;;;;;;;30.15;18.17;;;;;;;6.53;79.37;94383.03;2979262;39;20055;-89
2021/04/19 07:12:49;;;;;;;32.03;18.15;;;;;;;6.58;79.41;94385.19;2988818;39;20090;-85
2021/04/19 07:14:53;;;;;;;30.00;17.70;;;;;;;6.62;79.22;94381.34;2988326;39;20039;-85
2021/04/19 07:16:55;;;;;;;27.25;16.20;;;;;;;6.63;79.50;94388.22;3006560;39;20030;-89
2021/04/19 07:18:58;;;;;;;24.40;14.63;;;;;;;6.64;78.95;94391.63;2988414;39;20095;-86
2021/04/19 07:21:00;;;;;;;24.95;16.35;;;;;;;6.64;78.94;94384.63;2997598;39;20044;-86
2021/04/19 07:23:01;;;;;;;26.15;15.98;;;;;;;6.65;78.32;94388.91;2979738;40;20056;-89
2021/04/19 07:25:03;;;;;;;24.92;15.02;;;;;;;6.66;78.92;94392.31;2987455;39;20051;-86
2021/04/19 07:27:05;;;;;;;30.35;18.05;;;;;;;6.70;79.01;94391.88;2986926;39;20087;-89
2021/04/19 07:29:06;;;;;;;32.47;19.40;;;;;;;6.68;78.20;94390.38;2987232;39;20364;-90
2021/04/19 07:31:10;;;;;;;41.10;25.35;;;;;;;6.69;78.31;94386.81;2987461;39;20079;-88
2021/04/19 07:33:29;;;;;;;35.15;19.88;;;;;;;6.69;78.28;94387.66;2987784;39;20042;-87
2021/04/19 07:35:32;;;;;;;32.40;18.23;;;;;;;6.71;78.68;94387.50;2988138;39;20055;-88
2021/04/19 07:37:37;;;;;;;26.60;16.50;;;;;;;6.73;78.68;94378.59;3005617;39;20383;-85
2021/04/19 07:39:40;;;;;;;24.95;15.85;;;;;;;6.61;78.04;94378.91;2987984;39;20401;-87
2021/04/19 07:42:08;;;;;;;24.40;14.80;;;;;;;6.59;79.08;94375.63;2987203;39;20398;-89
2021/04/19 07:44:09;;;;;;;26.10;17.00;;;;;;;6.50;80.13;94375.53;2984865;39;20070;-86
2021/04/19 07:46:18;;;;;;;27.40;17.35;;;;;;;6.51;80.37;94364.13;3004879;39;20078;-89
2021/04/19 07:48:42;;;;;;;32.22;20.42;;;;;;;6.37;81.89;94362.00;2981066;39;20044;-88
2021/04/19 07:50:44;;;;;;;29.60;19.05;;;;;;;6.26;83.00;94359.56;2978092;39;20051;-89
2021/04/19 07:53:09;;;;;;;31.95;18.42;;;;;;;6.22;83.34;94353.03;2996221;39;20426;-90
2021/04/19 07:55:13;;;;;;;28.38;17.73;;;;;;;6.02;84.20;94347.84;2996578;39;20042;-87
2021/04/19 07:57:35;;;;;;;24.38;15.23;;;;;;;6.04;84.26;94345.09;2988042;39;20115;-84
2021/04/19 07:59:37;;;;;;;25.17;17.08;;;;;;;6.14;85.03;94349.31;2986956;39;20032;-86
2021/04/19 08:02:02;;;;;;;27.10;15.60;;;;;;;6.31;84.12;94347.78;2995660;39;20123;-88
2021/04/19 08:04:05;;;;;;;19.40;10.38;;;;;;;6.27;81.77;94345.59;2988800;39;20035;-87
2021/04/19 08:06:18;;;;;;;18.77;10.87;;;;;;;6.39;81.93;94344.47;2997379;39;20053;-85
2021/04/19 08:08:29;;;;;;;15.32;9.38;;;;;;;6.38;81.62;94348.03;2986336;39;20039;-86
2021/04/19 08:10:31;;;;;;;16.02;9.05;;;;;;;6.45;81.86;94341.28;2999030;39;20065;-88
2021/04/19 08:12:37;;;;;;;14.68;7.95;;;;;;;6.38;81.21;94340.22;3004671;39;20410;-86
2021/04/19 08:14:52;;;;;;;13.48;7.43;;;;;;;6.39;80.43;94344.47;2986520;39;20629;-90
2021/04/19 08:17:11;;;;;;;10.73;7.18;;;;;;;6.51;80.75;94342.50;2996099;39;20088;-86
2021/04/19 08:19:12;;;;;;;9.57;6.00;;;;;;;6.62;80.13;94346.72;2996838;39;20051;-87
2021/04/19 08:21:24;;;;;;;9.57;5.07;;;;;;;6.72;79.20;94345.69;2997013;39;20066;-89
2021/04/19 08:23:25;;;;;;;8.13;5.22;;;;;;;6.80;79.26;94350.19;2997121;39;20094;-87
2021/04/19 08:25:26;;;;;;;7.28;5.07;;;;;;;6.93;78.91;94345.47;2996218;39;20055;-88
2021/04/19 08:27:28;;;;;;;10.77;4.40;;;;;;;7.03;78.55;94336.78;2987116;39;20451;-72
2021/04/19 08:29:45;;;;;;;6.35;3.55;;;;;;;7.06;77.35;94337.31;2993305;39;20079;-74
2021/04/19 08:31:46;;;;;;;5.55;3.40;;;;;;;7.07;77.00;94331.13;2991520;39;20047;-73
2021/04/19 08:33:48;;;;;;;5.72;2.88;;;;;;;7.08;77.25;94335.38;2992276;39;20065;-71
2021/04/19 08:35:52;;;;;;;8.20;3.00;;;;;;;7.06;77.07;94331.28;2982849;39;20055;-73
2021/04/19 08:37:56;;;;;;;4.75;2.65;;;;;;;7.12;76.76;94322.84;2985660;39;20053;-74
2021/04/19 08:39:58;;;;;;;4.68;2.47;;;;;;;7.07;75.77;94331.13;2985904;39;20054;-72
2021/04/19 08:42:01;;;;;;;5.90;2.70;;;;;;;7.02;76.39;94328.16;2983328;39;20092;-72
2021/04/19 08:44:02;;;;;;;3.63;2.20;;;;;;;6.86;75.58;94326.19;2993751;39;20072;-73
2021/04/19 08:46:04;;;;;;;4.03;2.78;;;;;;;6.80;75.94;94320.72;2993456;39;20084;-71
2021/04/19 08:48:11;;;;;;;4.68;2.90;;;;;;;6.74;77.32;94314.31;2979963;39;20435;-74
2021/04/19 08:50:18;;;;;;;6.80;3.22;;;;;;;6.66;77.10;94319.44;2984079;39;20408;-72
2021/04/19 08:52:19;;;;;;;5.18;2.92;;;;;;;6.57;77.27;94316.72;2993253;39;20139;-72
2021/04/19 08:54:21;;;;;;;6.22;3.40;;;;;;;6.64;78.50;94316.97;2979576;39;20052;-73
2021/04/19 08:56:23;;;;;;;6.10;3.92;;;;;;;6.74;78.36;94311.72;2983118;39;20075;-73
2021/04/19 08:58:24;;;;;;;4.57;3.20;;;;;;;6.79;77.84;94312.09;2992846;39;20051;-75
2021/04/19 09:00:26;;;;;;;5.20;3.47;;;;;;;6.84;77.79;94315.09;2983777;39;20059;-72
2021/04/19 09:02:28;;;;;;;4.93;3.05;;;;;;;6.77;77.71;94316.63;2983738;39;20100;-74
2021/04/19 09:04:30;;;;;;;5.88;3.65;;;;;;;6.64;78.42;94316.97;2975355;39;20064;-73
2021/04/19 09:06:45;;;;;;;6.55;3.60;;;;;;;6.76;79.23;94320.22;2982529;39;20062;-71
2021/04/19 09:08:47;;;;;;;6.70;3.53;;;;;;;6.63;78.62;94317.13;2980830;39;20083;-72
2021/04/19 09:10:54;;;;;;;8.90;3.95;;;;;;;6.72;79.99;94306.66;2978752;39;20128;-72
2021/04/19 09:12:55;;;;;;;6.25;3.88;;;;;;;6.72;79.04;94304.06;2996688;39;20083;-73
2021/04/19 09:15:13;;;;;;;7.60;4.38;;;;;;;6.86;79.26;94301.91;2987803;39;20413;-73
2021/04/19 09:17:27;;;;;;;6.40;4.55;;;;;;;6.86;79.56;94302.75;2987807;39;20047;-74
2021/04/19 09:19:32;;;;;;;;;;;;;;;7.04;80.43;94320.19;2990723;39;20067;-74
2021/04/19 09:21:42;;;;;;;9.30;4.85;;;;;;;7.12;79.85;94321.09;2984834;39;20010;-86
2021/04/19 09:23:53;;;;;;;7.30;4.47;;;;;;;7.22;79.59;94320.19;2975818;39;20059;-74
2021/04/19 09:25:56;;;;;;;8.30;5.57;;;;;;;7.23;78.75;94317.47;2993935;39;20051;-72
2021/04/19 09:27:57;;;;;;;9.80;6.45;;;;;;;7.23;79.28;94317.47;2985848;39;20453;-74
2021/04/19 09:29:58;;;;;;;9.32;5.30;;;;;;;7.36;79.45;94304.88;2983729;39;20075;-73
2021/04/19 09:32:17;;;;;;;8.93;5.15;;;;;;;7.18;78.62;94304.03;3006267;39;20061;-86
2021/04/19 09:34:19;;;;;;;9.38;6.18;;;;;;;7.01;80.21;94294.44;2998978;39;20039;-86
2021/04/19 09:36:51;;;;;;;13.23;6.80;;;;;;;6.75;81.12;94298.56;3007768;39;20400;-85
2021/04/19 09:38:53;;;;;;;9.68;6.05;;;;;;;6.79;80.91;94304.28;2978575;39;20136;-74
2021/04/19 09:40:56;;;;;;;10.85;6.30;;;;;;;6.85;80.94;94297.69;2992961;39;20058;-72
2021/04/19 09:43:02;;;;;;;9.48;6.82;;;;;;;6.87;81.11;94300.97;2983464;39;20044;-73